首页
METAR-TAF:

METAR-TAF

机场 :

哈马德国际机场

多哈, 卡塔尔

纬度: 25-16-23N, 经度: 51-36-29E, 海拔: 4米

当前天气观测

该预报发布于15分钟前的16:00 UTC
风速11节,风向北转西北
温度 21°C
湿度 64%
气压 1014 hPa
能见度10公里或以上
1500米以下无云,无积雨云

METAR: OTHH 121600Z AUTO 34011KT CAVOK 21/14 Q1014 NOSIG

时间: 19:15 (16:15 UTC)

预报

该预报发布于5小时和13分钟前的11:02 UTC
预报有效从12日的 12点(UTC)到 13日的 18点(UTC)
风速10节,风向西北
能见度10公里或以上
1500米以下无云,无积雨云
成为
从 12日的 16点(UTC)到 12日的 18点(UTC)
风速7节,风向西转西南
几率 30% :
短暂存在
从 13日的 05点(UTC)到 13日的 10点(UTC)
风速2节,风向多变
成为
从 13日的 11点(UTC)到 13日的 13点(UTC)
风速6节,风向东南

TAF: OTHH 121102Z 1212/1318 32010KT CAVOK BECMG 1216/1218 25007KT PROB30 TEMPO 1305/1310 VRB02KT BECMG 1311/1313 13006KT

超过4000个机场的气象观测和天气预报(METAR&TAF报告)。

可查询的气象台以黄色和红色小点在地图上表示。

将鼠标移到小点上方,可查看气象台名称。

然后点击查看天气观测和预报。

如需切换地图:点击带黑十字的绿色按钮放大地图;点击带横线的绿色按钮缩小地图;或者点击绿色箭头查看邻近地区的地图。


METAR-TAF: